sensor_id;sensor_type;location;lat;lon;timestamp;pressure;altitude;pressure_sealevel;temperature;humidity
43741;BME280;29352;48.708;9.290;2023-02-08T00:00:21;99807.97;;;-10.39;63.62
43741;BME280;29352;48.708;9.290;2023-02-08T00:02:47;99800.41;;;-10.46;62.36
43741;BME280;29352;48.708;9.290;2023-02-08T00:05:13;99800.47;;;-10.50;64.53
43741;BME280;29352;48.708;9.290;2023-02-08T00:07:38;99792.28;;;-10.65;65.78
43741;BME280;29352;48.708;9.290;2023-02-08T00:10:04;99787.19;;;-10.70;63.57
43741;BME280;29352;48.708;9.290;2023-02-08T00:12:32;99780.16;;;-10.62;64.97
43741;BME280;29352;48.708;9.290;2023-02-08T00:15:01;99779.50;;;-10.72;65.97
43741;BME280;29352;48.708;9.290;2023-02-08T00:17:27;99768.63;;;-10.84;63.62
43741;BME280;29352;48.708;9.290;2023-02-08T00:19:53;99768.81;;;-10.92;65.69
43741;BME280;29352;48.708;9.290;2023-02-08T00:22:18;99759.06;;;-10.81;68.07
43741;BME280;29352;48.708;9.290;2023-02-08T00:24:43;99766.28;;;-10.59;63.34
43741;BME280;29352;48.708;9.290;2023-02-08T00:27:09;99765.31;;;-10.54;62.96
43741;BME280;29352;48.708;9.290;2023-02-08T00:29:34;99753.41;;;-10.59;61.28
43741;BME280;29352;48.708;9.290;2023-02-08T00:32:00;99764.69;;;-10.63;62.10
43741;BME280;29352;48.708;9.290;2023-02-08T00:34:26;99758.59;;;-10.61;62.89
43741;BME280;29352;48.708;9.290;2023-02-08T00:36:51;99758.88;;;-10.73;63.08
43741;BME280;29352;48.708;9.290;2023-02-08T00:39:17;99757.34;;;-10.80;65.33
43741;BME280;29352;48.708;9.290;2023-02-08T00:41:42;99756.56;;;-10.84;64.58
43741;BME280;29352;48.708;9.290;2023-02-08T00:44:08;99747.25;;;-10.89;66.18
43741;BME280;29352;48.708;9.290;2023-02-08T00:46:33;99756.03;;;-10.98;67.24
43741;BME280;29352;48.708;9.290;2023-02-08T00:48:58;99748.41;;;-11.03;66.58
43741;BME280;29352;48.708;9.290;2023-02-08T00:51:24;99746.16;;;-10.81;63.35
43741;BME280;29352;48.708;9.290;2023-02-08T00:53:49;99755.13;;;-10.96;66.43
43741;BME280;29352;48.708;9.290;2023-02-08T00:56:15;99755.00;;;-10.91;65.85
43741;BME280;29352;48.708;9.290;2023-02-08T00:58:42;99757.34;;;-10.80;65.18
43741;BME280;29352;48.708;9.290;2023-02-08T01:01:08;99757.19;;;-10.74;63.53
43741;BME280;29352;48.708;9.290;2023-02-08T01:03:36;99755.84;;;-10.90;63.07
43741;BME280;29352;48.708;9.290;2023-02-08T01:06:06;99758.38;;;-10.87;62.58
43741;BME280;29352;48.708;9.290;2023-02-08T01:08:33;99762.41;;;-10.76;61.46
43741;BME280;29352;48.708;9.290;2023-02-08T01:11:10;99757.50;;;-10.52;59.72
43741;BME280;29352;48.708;9.290;2023-02-08T01:13:38;99772.53;;;-10.68;62.46
43741;BME280;29352;48.708;9.290;2023-02-08T01:16:09;99770.53;;;-10.57;59.90
43741;BME280;29352;48.708;9.290;2023-02-08T01:18:39;99759.31;;;-10.56;58.82
43741;BME280;29352;48.708;9.290;2023-02-08T01:21:11;99761.47;;;-10.37;59.59
43741;BME280;29352;48.708;9.290;2023-02-08T01:23:39;99757.38;;;-10.46;59.03
43741;BME280;29352;48.708;9.290;2023-02-08T01:26:07;99744.94;;;-10.66;59.15
43741;BME280;29352;48.708;9.290;2023-02-08T01:28:34;99759.78;;;-10.74;60.98
43741;BME280;29352;48.708;9.290;2023-02-08T01:31:14;99754.03;;;-10.85;62.06
43741;BME280;29352;48.708;9.290;2023-02-08T01:33:42;99750.16;;;-10.67;59.53
43741;BME280;29352;48.708;9.290;2023-02-08T01:36:08;99740.66;;;-10.65;59.34
43741;BME280;29352;48.708;9.290;2023-02-08T01:38:35;99738.69;;;-10.56;59.61
43741;BME280;29352;48.708;9.290;2023-02-08T01:41:04;99741.56;;;-10.68;60.39
43741;BME280;29352;48.708;9.290;2023-02-08T01:43:56;99738.88;;;-10.63;60.23
43741;BME280;29352;48.708;9.290;2023-02-08T01:46:34;99730.47;;;-10.72;61.40
43741;BME280;29352;48.708;9.290;2023-02-08T01:49:07;99737.44;;;-10.75;61.11
43741;BME280;29352;48.708;9.290;2023-02-08T01:51:46;99728.69;;;-10.68;60.55
43741;BME280;29352;48.708;9.290;2023-02-08T01:54:22;99724.16;;;-10.60;59.18
43741;BME280;29352;48.708;9.290;2023-02-08T01:56:51;99723.44;;;-10.65;58.86
43741;BME280;29352;48.708;9.290;2023-02-08T01:59:24;99714.66;;;-10.25;58.67
43741;BME280;29352;48.708;9.290;2023-02-08T02:01:58;99719.72;;;-10.20;57.77
43741;BME280;29352;48.708;9.290;2023-02-08T02:04:26;99714.44;;;-10.16;57.62
43741;BME280;29352;48.708;9.290;2023-02-08T02:06:57;99717.00;;;-10.49;59.90
43741;BME280;29352;48.708;9.290;2023-02-08T02:12:08;99713.97;;;-10.64;59.51
43741;BME280;29352;48.708;9.290;2023-02-08T02:14:38;99709.59;;;-10.97;61.37
43741;BME280;29352;48.708;9.290;2023-02-08T02:17:04;99712.88;;;-10.91;62.57
43741;BME280;29352;48.708;9.290;2023-02-08T02:27:28;99706.88;;;-11.29;62.82
43741;BME280;29352;48.708;9.290;2023-02-08T02:38:43;99696.25;;;-11.14;64.40
43741;BME280;29352;48.708;9.290;2023-02-08T02:48:09;99697.88;;;-11.49;66.60
43741;BME280;29352;48.708;9.290;2023-02-08T02:50:54;99689.56;;;-11.23;64.17
43741;BME280;29352;48.708;9.290;2023-02-08T02:53:31;99687.16;;;-10.94;62.68
43741;BME280;29352;48.708;9.290;2023-02-08T02:56:12;99697.03;;;-11.12;62.16
43741;BME280;29352;48.708;9.290;2023-02-08T02:58:43;99698.00;;;-11.16;63.66
43741;BME280;29352;48.708;9.290;2023-02-08T03:01:10;99704.88;;;-11.16;63.47
43741;BME280;29352;48.708;9.290;2023-02-08T03:03:35;99703.22;;;-11.19;63.09
43741;BME280;29352;48.708;9.290;2023-02-08T03:06:09;99703.59;;;-11.36;62.84
43741;BME280;29352;48.708;9.290;2023-02-08T03:09:07;99711.25;;;-11.33;63.27
43741;BME280;29352;48.708;9.290;2023-02-08T03:11:45;99701.53;;;-11.20;62.22
43741;BME280;29352;48.708;9.290;2023-02-08T03:20:40;99695.31;;;-10.76;59.07
43741;BME280;29352;48.708;9.290;2023-02-08T03:29:01;99691.91;;;-10.76;59.15
43741;BME280;29352;48.708;9.290;2023-02-08T03:32:14;99701.16;;;-11.05;60.54
43741;BME280;29352;48.708;9.290;2023-02-08T03:37:52;99685.50;;;-10.97;61.33
43741;BME280;29352;48.708;9.290;2023-02-08T03:40:27;99699.03;;;-11.23;62.67
43741;BME280;29352;48.708;9.290;2023-02-08T03:43:01;99702.13;;;-11.09;61.45
43741;BME280;29352;48.708;9.290;2023-02-08T03:45:41;99701.00;;;-11.36;62.32
43741;BME280;29352;48.708;9.290;2023-02-08T03:48:16;99709.09;;;-11.51;63.67
43741;BME280;29352;48.708;9.290;2023-02-08T03:50:49;99697.06;;;-11.51;64.62
43741;BME280;29352;48.708;9.290;2023-02-08T03:53:21;99699.50;;;-11.46;64.06
43741;BME280;29352;48.708;9.290;2023-02-08T03:55:55;99695.22;;;-11.46;65.08
43741;BME280;29352;48.708;9.290;2023-02-08T03:58:31;99695.50;;;-11.58;64.91
43741;BME280;29352;48.708;9.290;2023-02-08T04:01:11;99705.13;;;-11.66;65.77
43741;BME280;29352;48.708;9.290;2023-02-08T04:03:44;99707.81;;;-11.72;66.11
43741;BME280;29352;48.708;9.290;2023-02-08T04:06:15;99684.22;;;-11.52;66.11
43741;BME280;29352;48.708;9.290;2023-02-08T04:08:41;99693.25;;;-11.75;66.37
43741;BME280;29352;48.708;9.290;2023-02-08T04:11:06;99702.09;;;-11.86;66.17
43741;BME280;29352;48.708;9.290;2023-02-08T04:13:32;99692.34;;;-11.72;66.12
43741;BME280;29352;48.708;9.290;2023-02-08T04:15:57;99697.88;;;-11.91;67.61
43741;BME280;29352;48.708;9.290;2023-02-08T04:18:23;99695.22;;;-11.87;67.76
43741;BME280;29352;48.708;9.290;2023-02-08T04:20:48;99691.91;;;-11.93;67.15
43741;BME280;29352;48.708;9.290;2023-02-08T04:23:14;99686.66;;;-11.86;66.85
43741;BME280;29352;48.708;9.290;2023-02-08T04:25:39;99694.59;;;-11.99;67.48
43741;BME280;29352;48.708;9.290;2023-02-08T04:28:05;99691.09;;;-11.95;67.50
43741;BME280;29352;48.708;9.290;2023-02-08T04:30:30;99692.59;;;-11.84;67.65
43741;BME280;29352;48.708;9.290;2023-02-08T04:32:55;99690.28;;;-11.97;68.03
43741;BME280;29352;48.708;9.290;2023-02-08T04:35:22;99698.00;;;-11.97;67.87
43741;BME280;29352;48.708;9.290;2023-02-08T04:37:47;99691.34;;;-12.07;68.24
43741;BME280;29352;48.708;9.290;2023-02-08T04:40:13;99686.88;;;-11.97;68.11
43741;BME280;29352;48.708;9.290;2023-02-08T04:42:39;99683.91;;;-11.80;67.85
43741;BME280;29352;48.708;9.290;2023-02-08T04:45:04;99678.34;;;-12.01;68.57
43741;BME280;29352;48.708;9.290;2023-02-08T04:47:30;99682.22;;;-12.23;70.32
43741;BME280;29352;48.708;9.290;2023-02-08T04:49:55;99677.06;;;-12.23;70.67
43741;BME280;29352;48.708;9.290;2023-02-08T04:52:21;99675.59;;;-12.36;70.88
43741;BME280;29352;48.708;9.290;2023-02-08T04:54:46;99672.84;;;-12.27;71.02
43741;BME280;29352;48.708;9.290;2023-02-08T04:57:13;99675.44;;;-12.27;71.08
43741;BME280;29352;48.708;9.290;2023-02-08T04:59:39;99681.81;;;-12.48;72.02
43741;BME280;29352;48.708;9.290;2023-02-08T05:02:05;99673.22;;;-12.46;71.72
43741;BME280;29352;48.708;9.290;2023-02-08T05:04:31;99668.81;;;-12.41;72.28
43741;BME280;29352;48.708;9.290;2023-02-08T05:06:57;99664.59;;;-12.45;72.23
43741;BME280;29352;48.708;9.290;2023-02-08T05:09:23;99659.22;;;-12.32;72.41
43741;BME280;29352;48.708;9.290;2023-02-08T05:11:48;99661.97;;;-12.43;71.50
43741;BME280;29352;48.708;9.290;2023-02-08T05:14:14;99661.88;;;-12.37;71.29
43741;BME280;29352;48.708;9.290;2023-02-08T05:16:39;99658.41;;;-12.36;71.61
43741;BME280;29352;48.708;9.290;2023-02-08T05:19:05;99660.34;;;-12.46;71.66
43741;BME280;29352;48.708;9.290;2023-02-08T05:21:30;99659.50;;;-12.48;71.15
43741;BME280;29352;48.708;9.290;2023-02-08T05:23:55;99653.50;;;-12.48;71.27
43741;BME280;29352;48.708;9.290;2023-02-08T05:26:21;99656.16;;;-12.51;71.34
43741;BME280;29352;48.708;9.290;2023-02-08T05:28:46;99662.22;;;-12.55;71.45
43741;BME280;29352;48.708;9.290;2023-02-08T05:31:21;99670.03;;;-12.61;71.15
43741;BME280;29352;48.708;9.290;2023-02-08T05:33:50;99671.88;;;-12.68;71.14
43741;BME280;29352;48.708;9.290;2023-02-08T05:36:16;99669.22;;;-12.64;70.52
43741;BME280;29352;48.708;9.290;2023-02-08T05:38:42;99671.28;;;-12.34;69.86
43741;BME280;29352;48.708;9.290;2023-02-08T05:41:08;99669.38;;;-12.26;69.36
43741;BME280;29352;48.708;9.290;2023-02-08T05:43:34;99669.22;;;-12.17;68.45
43741;BME280;29352;48.708;9.290;2023-02-08T05:46:00;99674.06;;;-12.47;70.74
43741;BME280;29352;48.708;9.290;2023-02-08T05:48:26;99675.56;;;-12.35;67.69
43741;BME280;29352;48.708;9.290;2023-02-08T05:50:52;99680.63;;;-12.30;67.96
43741;BME280;29352;48.708;9.290;2023-02-08T05:53:18;99682.50;;;-12.38;68.88
43741;BME280;29352;48.708;9.290;2023-02-08T05:55:45;99685.38;;;-12.57;68.75
43741;BME280;29352;48.708;9.290;2023-02-08T05:58:12;99678.47;;;-12.53;69.57
43741;BME280;29352;48.708;9.290;2023-02-08T06:00:38;99675.94;;;-12.55;69.66
43741;BME280;29352;48.708;9.290;2023-02-08T06:03:04;99688.16;;;-12.68;69.58
43741;BME280;29352;48.708;9.290;2023-02-08T06:05:30;99673.44;;;-12.59;69.91
43741;BME280;29352;48.708;9.290;2023-02-08T06:07:55;99681.28;;;-12.67;70.39
43741;BME280;29352;48.708;9.290;2023-02-08T06:10:21;99682.47;;;-12.87;70.53
43741;BME280;29352;48.708;9.290;2023-02-08T06:12:46;99687.44;;;-12.77;70.32
43741;BME280;29352;48.708;9.290;2023-02-08T06:15:12;99690.66;;;-12.63;70.39
43741;BME280;29352;48.708;9.290;2023-02-08T06:17:37;99682.06;;;-12.62;69.87
43741;BME280;29352;48.708;9.290;2023-02-08T06:20:04;99685.75;;;-12.77;70.32
43741;BME280;29352;48.708;9.290;2023-02-08T06:22:29;99694.19;;;-12.70;70.96
43741;BME280;29352;48.708;9.290;2023-02-08T06:24:55;99693.44;;;-12.75;70.03
43741;BME280;29352;48.708;9.290;2023-02-08T06:27:21;99694.47;;;-12.85;71.39
43741;BME280;29352;48.708;9.290;2023-02-08T06:29:46;99694.38;;;-12.79;70.16
43741;BME280;29352;48.708;9.290;2023-02-08T06:32:12;99688.34;;;-12.78;70.69
43741;BME280;29352;48.708;9.290;2023-02-08T06:34:37;99694.72;;;-13.01;71.87
43741;BME280;29352;48.708;9.290;2023-02-08T06:37:03;99699.94;;;-13.07;71.12
43741;BME280;29352;48.708;9.290;2023-02-08T06:39:29;99696.75;;;-12.70;70.16
43741;BME280;29352;48.708;9.290;2023-02-08T06:41:55;99702.81;;;-12.73;69.86
43741;BME280;29352;48.708;9.290;2023-02-08T06:44:21;99701.16;;;-12.75;71.33
43741;BME280;29352;48.708;9.290;2023-02-08T06:46:46;99694.31;;;-12.78;71.75
43741;BME280;29352;48.708;9.290;2023-02-08T06:49:12;99695.72;;;-12.58;70.00
43741;BME280;29352;48.708;9.290;2023-02-08T06:51:38;99689.44;;;-11.99;68.21
43741;BME280;29352;48.708;9.290;2023-02-08T06:54:05;99695.00;;;-11.36;67.32
43741;BME280;29352;48.708;9.290;2023-02-08T06:56:30;99688.25;;;-11.03;65.88
43741;BME280;29352;48.708;9.290;2023-02-08T06:58:56;99678.56;;;-9.95;63.78
43741;BME280;29352;48.708;9.290;2023-02-08T07:01:22;99692.56;;;-9.73;63.35
43741;BME280;29352;48.708;9.290;2023-02-08T07:03:47;99684.13;;;-9.20;61.93
43741;BME280;29352;48.708;9.290;2023-02-08T07:06:15;99681.91;;;-8.53;59.03
43741;BME280;29352;48.708;9.290;2023-02-08T07:08:43;99688.81;;;-8.03;58.43
43741;BME280;29352;48.708;9.290;2023-02-08T07:11:12;99679.31;;;-7.56;56.60
43741;BME280;29352;48.708;9.290;2023-02-08T07:13:39;99681.72;;;-6.85;55.79
43741;BME280;29352;48.708;9.290;2023-02-08T07:16:07;99683.38;;;-6.62;55.50
43741;BME280;29352;48.708;9.290;2023-02-08T07:18:34;99689.81;;;-6.10;54.32
43741;BME280;29352;48.708;9.290;2023-02-08T07:21:01;99694.84;;;-6.46;54.06
43741;BME280;29352;48.708;9.290;2023-02-08T07:23:27;99691.06;;;-5.60;52.40
43741;BME280;29352;48.708;9.290;2023-02-08T07:25:59;99686.88;;;-4.71;50.20
43741;BME280;29352;48.708;9.290;2023-02-08T07:28:27;99693.00;;;-5.09;49.67
43741;BME280;29352;48.708;9.290;2023-02-08T07:30:53;99686.25;;;-4.77;50.43
43741;BME280;29352;48.708;9.290;2023-02-08T07:33:19;99688.13;;;-3.60;48.77
43741;BME280;29352;48.708;9.290;2023-02-08T07:35:46;99677.00;;;-3.79;47.84
43741;BME280;29352;48.708;9.290;2023-02-08T07:38:12;99686.13;;;-3.88;47.79
43741;BME280;29352;48.708;9.290;2023-02-08T07:40:37;99687.53;;;-3.65;47.30
43741;BME280;29352;48.708;9.290;2023-02-08T07:43:03;99677.34;;;-3.06;46.93
43741;BME280;29352;48.708;9.290;2023-02-08T07:45:29;99685.59;;;-3.46;46.60
43741;BME280;29352;48.708;9.290;2023-02-08T07:47:54;99687.31;;;-3.45;47.39
43741;BME280;29352;48.708;9.290;2023-02-08T07:50:20;99686.69;;;-3.50;47.38
43741;BME280;29352;48.708;9.290;2023-02-08T07:52:45;99684.00;;;-2.55;46.22
43741;BME280;29352;48.708;9.290;2023-02-08T07:55:13;99684.38;;;-2.77;46.65
43741;BME280;29352;48.708;9.290;2023-02-08T07:57:43;99683.66;;;-2.95;46.77
43741;BME280;29352;48.708;9.290;2023-02-08T08:00:10;99686.31;;;-2.06;45.97
43741;BME280;29352;48.708;9.290;2023-02-08T08:02:36;99685.66;;;-2.09;45.93
43741;BME280;29352;48.708;9.290;2023-02-08T08:05:02;99689.09;;;-2.23;46.31
43741;BME280;29352;48.708;9.290;2023-02-08T08:07:28;99691.00;;;-1.82;45.57
43741;BME280;29352;48.708;9.290;2023-02-08T08:09:53;99691.25;;;-1.73;45.06
43741;BME280;29352;48.708;9.290;2023-02-08T08:12:19;99690.72;;;-1.63;44.22
43741;BME280;29352;48.708;9.290;2023-02-08T08:14:45;99683.88;;;-1.66;44.30
43741;BME280;29352;48.708;9.290;2023-02-08T08:17:11;99683.75;;;-2.36;45.17
43741;BME280;29352;48.708;9.290;2023-02-08T08:19:36;99676.03;;;-1.52;43.24
43741;BME280;29352;48.708;9.290;2023-02-08T08:22:02;99681.97;;;-1.21;43.24
43741;BME280;29352;48.708;9.290;2023-02-08T08:24:27;99680.94;;;-0.91;41.86
43741;BME280;29352;48.708;9.290;2023-02-08T08:26:54;99676.94;;;-1.38;43.16
43741;BME280;29352;48.708;9.290;2023-02-08T08:29:19;99680.16;;;-1.76;42.33
43741;BME280;29352;48.708;9.290;2023-02-08T08:31:45;99677.72;;;-1.79;41.80
43741;BME280;29352;48.708;9.290;2023-02-08T08:34:10;99679.03;;;-1.86;42.91
43741;BME280;29352;48.708;9.290;2023-02-08T08:36:36;99675.25;;;-1.25;43.12
43741;BME280;29352;48.708;9.290;2023-02-08T08:39:01;99683.75;;;-3.12;43.08
43741;BME280;29352;48.708;9.290;2023-02-08T08:41:27;99665.22;;;-0.91;41.26
43741;BME280;29352;48.708;9.290;2023-02-08T08:43:53;99676.03;;;-0.83;41.58
43741;BME280;29352;48.708;9.290;2023-02-08T08:46:18;99674.75;;;-1.18;39.85
43741;BME280;29352;48.708;9.290;2023-02-08T08:48:45;99673.41;;;-1.66;41.06
43741;BME280;29352;48.708;9.290;2023-02-08T08:51:11;99678.06;;;-1.28;40.38
43741;BME280;29352;48.708;9.290;2023-02-08T08:53:38;99673.19;;;-0.53;39.18
43741;BME280;29352;48.708;9.290;2023-02-08T08:56:04;99680.63;;;-1.41;40.09
43741;BME280;29352;48.708;9.290;2023-02-08T08:58:30;99678.47;;;-1.92;40.65
43741;BME280;29352;48.708;9.290;2023-02-08T09:00:57;99668.94;;;-0.81;39.62
43741;BME280;29352;48.708;9.290;2023-02-08T09:03:25;99677.94;;;-1.82;41.16
43741;BME280;29352;48.708;9.290;2023-02-08T09:05:51;99679.03;;;-2.45;40.33
43741;BME280;29352;48.708;9.290;2023-02-08T09:08:17;99672.97;;;-2.46;40.68
43741;BME280;29352;48.708;9.290;2023-02-08T09:10:42;99678.00;;;-2.57;41.40
43741;BME280;29352;48.708;9.290;2023-02-08T09:13:09;99664.63;;;-3.60;43.02
43741;BME280;29352;48.708;9.290;2023-02-08T09:15:39;99653.91;;;-3.08;41.82
43741;BME280;29352;48.708;9.290;2023-02-08T09:18:05;99676.16;;;-3.80;43.09
43741;BME280;29352;48.708;9.290;2023-02-08T09:20:30;99685.28;;;-3.89;42.71
43741;BME280;29352;48.708;9.290;2023-02-08T09:22:56;99662.28;;;-3.65;42.66
43741;BME280;29352;48.708;9.290;2023-02-08T09:25:22;99661.03;;;-3.42;42.38
43741;BME280;29352;48.708;9.290;2023-02-08T09:27:47;99671.19;;;-4.19;44.02
43741;BME280;29352;48.708;9.290;2023-02-08T09:30:13;99656.88;;;-3.14;42.62
43741;BME280;29352;48.708;9.290;2023-02-08T09:32:38;99668.50;;;-3.36;43.40
43741;BME280;29352;48.708;9.290;2023-02-08T09:35:05;99661.66;;;-3.70;43.67
43741;BME280;29352;48.708;9.290;2023-02-08T09:37:31;99665.09;;;-4.53;43.74
43741;BME280;29352;48.708;9.290;2023-02-08T09:39:57;99667.75;;;-3.69;43.18
43741;BME280;29352;48.708;9.290;2023-02-08T09:42:28;99692.53;;;-3.45;43.49
43741;BME280;29352;48.708;9.290;2023-02-08T09:45:16;99679.38;;;-3.59;43.43
43741;BME280;29352;48.708;9.290;2023-02-08T09:50:32;99670.75;;;-3.77;43.90
43741;BME280;29352;48.708;9.290;2023-02-08T09:53:24;99662.81;;;-4.09;44.72
43741;BME280;29352;48.708;9.290;2023-02-08T09:56:05;99663.97;;;-3.48;44.63
43741;BME280;29352;48.708;9.290;2023-02-08T09:58:42;99646.47;;;-3.95;44.35
43741;BME280;29352;48.708;9.290;2023-02-08T10:03:58;99643.97;;;-3.81;44.55
43741;BME280;29352;48.708;9.290;2023-02-08T10:06:30;99637.78;;;-3.62;44.41
43741;BME280;29352;48.708;9.290;2023-02-08T10:09:02;99641.16;;;-3.44;44.04
43741;BME280;29352;48.708;9.290;2023-02-08T10:27:09;99658.78;;;-3.97;44.04
43741;BME280;29352;48.708;9.290;2023-02-08T10:32:43;99640.25;;;-4.43;44.73
43741;BME280;29352;48.708;9.290;2023-02-08T10:35:28;99652.66;;;-3.64;43.66
43741;BME280;29352;48.708;9.290;2023-02-08T10:38:22;99651.16;;;-3.52;44.21
43741;BME280;29352;48.708;9.290;2023-02-08T10:40:59;99634.56;;;-3.36;43.84
43741;BME280;29352;48.708;9.290;2023-02-08T10:46:03;99635.09;;;-3.76;44.35
43741;BME280;29352;48.708;9.290;2023-02-08T10:51:32;99629.59;;;-3.56;44.67
43741;BME280;29352;48.708;9.290;2023-02-08T10:53:58;99630.94;;;-3.33;43.87
43741;BME280;29352;48.708;9.290;2023-02-08T10:56:38;99615.88;;;-3.60;44.54
43741;BME280;29352;48.708;9.290;2023-02-08T10:59:26;99611.00;;;-3.04;43.68
43741;BME280;29352;48.708;9.290;2023-02-08T11:01:57;99610.16;;;-3.35;43.93
43741;BME280;29352;48.708;9.290;2023-02-08T11:04:23;99605.50;;;-3.29;44.00
43741;BME280;29352;48.708;9.290;2023-02-08T11:06:50;99608.16;;;-2.99;44.88
43741;BME280;29352;48.708;9.290;2023-02-08T11:09:29;99598.53;;;-2.99;44.41
43741;BME280;29352;48.708;9.290;2023-02-08T11:11:59;99619.03;;;-3.07;43.88
43741;BME280;29352;48.708;9.290;2023-02-08T11:14:27;99600.63;;;-2.90;43.52
43741;BME280;29352;48.708;9.290;2023-02-08T11:16:58;99588.56;;;-2.92;43.77
43741;BME280;29352;48.708;9.290;2023-02-08T11:19:39;99603.50;;;-3.24;44.14
43741;BME280;29352;48.708;9.290;2023-02-08T11:22:22;99592.47;;;-2.69;43.64
43741;BME280;29352;48.708;9.290;2023-02-08T11:24:57;99576.44;;;-2.34;43.57
43741;BME280;29352;48.708;9.290;2023-02-08T11:32:45;99570.97;;;-3.04;43.57
43741;BME280;29352;48.708;9.290;2023-02-08T11:35:24;99570.59;;;-2.82;44.06
43741;BME280;29352;48.708;9.290;2023-02-08T11:37:56;99575.53;;;-2.78;43.91
43741;BME280;29352;48.708;9.290;2023-02-08T11:40:36;99571.16;;;-2.63;43.15
43741;BME280;29352;48.708;9.290;2023-02-08T11:43:21;99564.34;;;-3.10;43.94
43741;BME280;29352;48.708;9.290;2023-02-08T11:45:57;99573.97;;;-2.66;43.82
43741;BME280;29352;48.708;9.290;2023-02-08T11:48:48;99558.66;;;-2.87;44.94
43741;BME280;29352;48.708;9.290;2023-02-08T11:51:35;99549.16;;;-3.34;47.08
43741;BME280;29352;48.708;9.290;2023-02-08T11:54:04;99561.28;;;-2.72;45.06
43741;BME280;29352;48.708;9.290;2023-02-08T11:56:33;99563.59;;;-2.68;44.26
43741;BME280;29352;48.708;9.290;2023-02-08T11:59:21;99550.22;;;-3.22;44.22
43741;BME280;29352;48.708;9.290;2023-02-08T12:01:48;99561.53;;;-2.77;44.47
43741;BME280;29352;48.708;9.290;2023-02-08T12:04:15;99547.63;;;-2.77;44.05
43741;BME280;29352;48.708;9.290;2023-02-08T12:10:46;99552.69;;;-2.46;45.41
43741;BME280;29352;48.708;9.290;2023-02-08T12:16:30;99547.84;;;-3.57;47.95
43741;BME280;29352;48.708;9.290;2023-02-08T12:21:49;99527.28;;;-3.47;46.89
43741;BME280;29352;48.708;9.290;2023-02-08T12:24:49;99531.91;;;-3.06;47.78
43741;BME280;29352;48.708;9.290;2023-02-08T12:30:44;99512.59;;;-3.03;45.50
43741;BME280;29352;48.708;9.290;2023-02-08T12:46:49;99508.22;;;-3.03;46.10
43741;BME280;29352;48.708;9.290;2023-02-08T12:49:40;99495.53;;;-2.23;45.29
43741;BME280;29352;48.708;9.290;2023-02-08T12:52:54;99483.78;;;-2.59;46.65
43741;BME280;29352;48.708;9.290;2023-02-08T12:55:35;99478.31;;;-3.73;47.91
43741;BME280;29352;48.708;9.290;2023-02-08T12:58:27;99468.06;;;-4.08;48.23
43741;BME280;29352;48.708;9.290;2023-02-08T13:01:05;99466.22;;;-2.57;46.64
43741;BME280;29352;48.708;9.290;2023-02-08T13:04:02;99455.66;;;-3.27;47.04
43741;BME280;29352;48.708;9.290;2023-02-08T13:06:39;99459.47;;;-3.04;48.01
43741;BME280;29352;48.708;9.290;2023-02-08T13:12:25;99453.53;;;-3.06;46.55
43741;BME280;29352;48.708;9.290;2023-02-08T13:17:58;99455.34;;;-4.62;49.27
43741;BME280;29352;48.708;9.290;2023-02-08T13:23:11;99441.41;;;-3.07;47.02
43741;BME280;29352;48.708;9.290;2023-02-08T13:25:45;99433.94;;;-2.99;47.17
43741;BME280;29352;48.708;9.290;2023-02-08T13:28:24;99440.47;;;-2.77;46.78
43741;BME280;29352;48.708;9.290;2023-02-08T13:33:31;99432.56;;;-2.76;46.71
43741;BME280;29352;48.708;9.290;2023-02-08T13:36:04;99429.44;;;-3.25;47.64
43741;BME280;29352;48.708;9.290;2023-02-08T13:38:58;99431.22;;;-4.34;48.96
43741;BME280;29352;48.708;9.290;2023-02-08T13:41:29;99440.44;;;-3.20;47.42
43741;BME280;29352;48.708;9.290;2023-02-08T13:44:06;99433.16;;;-3.29;48.09
43741;BME280;29352;48.708;9.290;2023-02-08T13:46:50;99433.19;;;-3.15;47.71
43741;BME280;29352;48.708;9.290;2023-02-08T13:52:45;99428.75;;;-3.73;48.36
43741;BME280;29352;48.708;9.290;2023-02-08T13:58:56;99452.72;;;-4.95;50.10
43741;BME280;29352;48.708;9.290;2023-02-08T14:03:31;99436.75;;;-4.08;49.41
43741;BME280;29352;48.708;9.290;2023-02-08T14:06:05;99453.97;;;-3.58;48.49
43741;BME280;29352;48.708;9.290;2023-02-08T14:08:54;99438.81;;;-4.94;50.76
43741;BME280;29352;48.708;9.290;2023-02-08T14:17:20;99437.72;;;-4.25;50.55
43741;BME280;29352;48.708;9.290;2023-02-08T14:19:57;99429.81;;;-3.62;50.35
43741;BME280;29352;48.708;9.290;2023-02-08T14:22:32;99427.47;;;-3.66;49.59
43741;BME280;29352;48.708;9.290;2023-02-08T14:25:15;99434.44;;;-3.37;49.87
43741;BME280;29352;48.708;9.290;2023-02-08T14:27:57;99444.94;;;-3.52;50.48
43741;BME280;29352;48.708;9.290;2023-02-08T14:30:34;99444.09;;;-3.53;49.64
43741;BME280;29352;48.708;9.290;2023-02-08T14:35:38;99451.56;;;-4.09;49.92
43741;BME280;29352;48.708;9.290;2023-02-08T14:43:38;99441.00;;;-3.90;50.51
43741;BME280;29352;48.708;9.290;2023-02-08T14:49:16;99431.41;;;-4.21;51.80
43741;BME280;29352;48.708;9.290;2023-02-08T14:52:03;99425.53;;;-4.24;51.81
43741;BME280;29352;48.708;9.290;2023-02-08T14:55:01;99439.00;;;-5.14;52.93
43741;BME280;29352;48.708;9.290;2023-02-08T14:57:35;99426.69;;;-4.14;51.06
43741;BME280;29352;48.708;9.290;2023-02-08T15:00:18;99439.63;;;-4.44;50.80
43741;BME280;29352;48.708;9.290;2023-02-08T15:02:48;99440.28;;;-4.57;51.69
43741;BME280;29352;48.708;9.290;2023-02-08T15:05:26;99444.13;;;-4.80;51.16
43741;BME280;29352;48.708;9.290;2023-02-08T15:08:01;99440.50;;;-5.97;52.96
43741;BME280;29352;48.708;9.290;2023-02-08T15:10:30;99445.38;;;-5.55;52.40
43741;BME280;29352;48.708;9.290;2023-02-08T15:13:00;99446.75;;;-5.65;52.95
43741;BME280;29352;48.708;9.290;2023-02-08T15:15:39;99455.72;;;-6.45;54.36
43741;BME280;29352;48.708;9.290;2023-02-08T15:18:17;99456.94;;;-6.52;54.29
43741;BME280;29352;48.708;9.290;2023-02-08T15:21:00;99451.78;;;-6.15;53.43
43741;BME280;29352;48.708;9.290;2023-02-08T15:23:29;99446.78;;;-6.01;53.51
43741;BME280;29352;48.708;9.290;2023-02-08T15:25:58;99437.66;;;-6.10;53.37
43741;BME280;29352;48.708;9.290;2023-02-08T15:28:29;99448.91;;;-5.05;52.17
43741;BME280;29352;48.708;9.290;2023-02-08T15:31:07;99452.22;;;-4.68;51.16
43741;BME280;29352;48.708;9.290;2023-02-08T15:33:40;99445.59;;;-5.42;52.44